createdAt,value
2022-12-23T00:01:58.528Z,26.15
2022-12-23T00:04:27.723Z,25.45
2022-12-23T00:06:56.691Z,36.40
2022-12-23T00:09:25.638Z,41.95
2022-12-23T00:12:13.243Z,29.73
2022-12-23T00:15:00.732Z,28.75
2022-12-23T00:17:29.730Z,36.33
2022-12-23T00:20:02.962Z,30.08
2022-12-23T00:23:00.504Z,28.27
2022-12-23T00:25:41.634Z,31.63
2022-12-23T00:28:13.354Z,30.42
2022-12-23T00:30:50.418Z,31.77
2022-12-23T00:33:24.876Z,33.08
2022-12-23T00:35:54.379Z,40.95
2022-12-23T00:38:47.902Z,35.00
2022-12-23T00:41:45.258Z,40.92
2022-12-23T00:44:14.293Z,45.40
2022-12-23T00:46:43.666Z,41.80
2022-12-23T00:49:32.531Z,43.80
2022-12-23T00:52:06.325Z,50.67
2022-12-23T00:54:35.627Z,51.00
2022-12-23T00:57:05.813Z,52.85
2022-12-23T00:59:34.839Z,50.97
2022-12-23T01:02:23.198Z,43.17
2022-12-23T01:08:17.133Z,41.35
2022-12-23T01:10:46.171Z,36.25
2022-12-23T01:13:15.433Z,35.80
2022-12-23T01:15:44.288Z,37.78
2022-12-23T01:18:13.668Z,42.70
2022-12-23T01:20:42.583Z,38.67
2022-12-23T01:23:17.579Z,47.03
2022-12-23T01:25:48.466Z,43.70
2022-12-23T01:28:21.951Z,46.03
2022-12-23T01:30:54.426Z,42.88
2022-12-23T01:33:23.489Z,50.08
2022-12-23T01:36:05.000Z,50.95
2022-12-23T01:38:34.610Z,44.85
2022-12-23T01:41:03.557Z,46.22
2022-12-23T01:43:51.621Z,43.50
2022-12-23T01:46:21.258Z,46.33
2022-12-23T01:48:52.248Z,34.78
2022-12-23T01:51:32.035Z,37.40
2022-12-23T01:54:04.020Z,39.38
2022-12-23T01:56:38.104Z,44.40
2022-12-23T01:59:08.734Z,41.20
2022-12-23T02:02:07.145Z,38.88
2022-12-23T02:04:36.300Z,36.20
2022-12-23T02:07:24.153Z,38.42
2022-12-23T02:09:52.981Z,37.60
2022-12-23T02:12:42.277Z,31.80
2022-12-23T02:15:45.452Z,35.13
2022-12-23T02:18:26.435Z,30.63
2022-12-23T02:21:11.848Z,28.63
2022-12-23T02:23:41.408Z,30.70
2022-12-23T02:26:32.827Z,28.95
2022-12-23T02:29:08.236Z,28.05
2022-12-23T02:31:45.712Z,34.28
2022-12-23T02:34:17.277Z,29.50
2022-12-23T02:36:58.537Z,27.85
2022-12-23T02:39:34.225Z,28.63
2022-12-23T02:42:16.001Z,29.60
2022-12-23T02:44:57.281Z,36.53
2022-12-23T02:50:00.752Z,62.88
2022-12-23T02:52:34.208Z,58.00
2022-12-23T02:55:09.992Z,49.42
2022-12-23T02:57:41.093Z,24.02
2022-12-23T03:00:10.328Z,33.63
2022-12-23T03:02:40.997Z,30.38
2022-12-23T03:05:28.792Z,28.48
2022-12-23T03:08:03.214Z,37.03
2022-12-23T03:10:35.637Z,28.58
2022-12-23T03:13:27.263Z,28.80
2022-12-23T03:16:05.519Z,37.22
2022-12-23T03:18:44.856Z,22.90
2022-12-23T03:21:33.479Z,22.33
2022-12-23T03:27:30.796Z,22.38
2022-12-23T03:30:05.864Z,22.85
2022-12-23T03:32:39.830Z,22.15
2022-12-23T03:35:10.263Z,27.70
2022-12-23T03:37:41.600Z,23.17
2022-12-23T03:40:14.978Z,77.20
2022-12-23T03:42:51.030Z,65.68
2022-12-23T03:45:38.751Z,42.95
2022-12-23T03:48:24.285Z,25.90
2022-12-23T03:51:00.828Z,36.45
2022-12-23T03:53:40.377Z,32.97
2022-12-23T03:56:14.079Z,30.27
2022-12-23T03:58:51.735Z,24.60
2022-12-23T04:01:32.885Z,27.17
2022-12-23T04:04:07.613Z,24.35
2022-12-23T04:09:43.346Z,19.63
2022-12-23T04:12:14.540Z,18.67
2022-12-23T04:14:47.906Z,27.35
2022-12-23T04:17:27.675Z,20.48
2022-12-23T04:20:01.400Z,19.23
2022-12-23T04:22:32.569Z,22.30
2022-12-23T04:25:06.299Z,19.45
2022-12-23T04:27:35.595Z,19.00
2022-12-23T04:30:05.186Z,22.15
2022-12-23T04:32:35.808Z,20.90
2022-12-23T04:35:05.092Z,20.08
2022-12-23T04:37:33.674Z,21.17
2022-12-23T04:40:02.938Z,20.63
2022-12-23T04:42:31.757Z,18.42
2022-12-23T04:45:00.711Z,26.90
2022-12-23T04:47:29.731Z,25.25
2022-12-23T04:49:58.532Z,38.70
2022-12-23T04:52:27.856Z,28.88
2022-12-23T04:54:58.821Z,28.70
2022-12-23T04:57:27.992Z,20.95
2022-12-23T04:59:57.505Z,30.10
2022-12-23T05:02:26.645Z,27.77
2022-12-23T05:04:55.594Z,22.45
2022-12-23T05:07:24.348Z,22.70
2022-12-23T05:10:03.209Z,19.50
2022-12-23T05:12:32.582Z,20.13
2022-12-23T05:15:01.830Z,18.70
2022-12-23T05:17:40.901Z,17.65
2022-12-23T05:20:10.125Z,25.30
2022-12-23T05:22:38.887Z,22.10
2022-12-23T05:25:18.122Z,21.80
2022-12-23T05:27:57.316Z,18.55
2022-12-23T05:30:26.076Z,16.50
2022-12-23T05:33:01.784Z,20.90
2022-12-23T05:35:30.815Z,17.35
2022-12-23T05:38:02.892Z,21.05
2022-12-23T05:40:38.354Z,18.05
2022-12-23T05:43:07.370Z,14.93
2022-12-23T05:45:42.580Z,17.45
2022-12-23T05:48:11.858Z,20.58
2022-12-23T05:50:49.907Z,21.60
2022-12-23T05:53:45.399Z,20.13
2022-12-23T05:56:14.605Z,16.25
2022-12-23T05:58:43.865Z,20.73
2022-12-23T06:01:13.958Z,15.27
2022-12-23T06:03:45.147Z,20.17
2022-12-23T06:06:14.304Z,17.77
2022-12-23T06:08:43.339Z,17.63
2022-12-23T06:11:15.530Z,16.95
2022-12-23T06:13:45.850Z,17.95
2022-12-23T06:16:15.608Z,14.93
2022-12-23T06:18:44.560Z,19.33
2022-12-23T06:21:13.349Z,17.88
2022-12-23T06:23:41.963Z,18.42
2022-12-23T06:26:11.002Z,15.27
2022-12-23T06:28:50.628Z,15.63
2022-12-23T06:31:20.533Z,16.83
2022-12-23T06:33:54.186Z,17.15
2022-12-23T06:36:22.938Z,18.13
2022-12-23T06:39:01.800Z,13.68
2022-12-23T06:41:41.041Z,14.90
2022-12-23T06:44:10.601Z,11.75
2022-12-23T06:46:39.222Z,18.50
2022-12-23T06:49:13.053Z,12.90
2022-12-23T06:51:47.183Z,16.00
2022-12-23T06:54:16.651Z,14.75
2022-12-23T06:56:45.584Z,16.35
2022-12-23T06:59:14.975Z,13.32
2022-12-23T07:01:44.511Z,17.40
2022-12-23T07:04:13.647Z,15.57
2022-12-23T07:06:43.208Z,16.98
2022-12-23T07:09:13.552Z,14.48
2022-12-23T07:11:53.049Z,75.22
2022-12-23T07:14:21.801Z,23.23
2022-12-23T07:17:01.009Z,17.65
2022-12-23T07:19:42.049Z,18.38
2022-12-23T07:22:11.828Z,15.63
2022-12-23T07:24:44.006Z,15.55
2022-12-23T07:27:18.309Z,18.02
2022-12-23T07:29:47.625Z,18.60
2022-12-23T07:32:17.070Z,19.02
2022-12-23T07:34:48.599Z,24.40
2022-12-23T07:37:18.026Z,16.75
2022-12-23T07:39:47.369Z,19.75
2022-12-23T07:42:43.503Z,15.57
2022-12-23T07:45:05.731Z,14.23
2022-12-23T07:47:34.454Z,16.92
2022-12-23T07:50:04.354Z,20.98
2022-12-23T07:52:33.631Z,16.48
2022-12-23T07:55:02.473Z,14.70
2022-12-23T07:57:38.009Z,16.35
2022-12-23T08:00:10.053Z,17.80
2022-12-23T08:02:43.096Z,16.25
2022-12-23T08:05:12.993Z,19.02
2022-12-23T08:07:45.444Z,20.35
2022-12-23T08:10:14.831Z,19.55
2022-12-23T08:12:44.073Z,17.50
2022-12-23T08:15:13.590Z,16.83
2022-12-23T08:17:52.232Z,16.52
2022-12-23T08:20:21.967Z,10.85
2022-12-23T08:23:00.713Z,16.45
2022-12-23T08:25:36.208Z,16.05
2022-12-23T08:28:15.556Z,17.70
2022-12-23T08:30:44.634Z,16.52
2022-12-23T08:33:14.574Z,13.68
2022-12-23T08:35:55.151Z,16.40
2022-12-23T08:38:24.898Z,13.70
2022-12-23T08:40:54.319Z,12.35
2022-12-23T08:43:23.229Z,21.08
2022-12-23T08:45:52.606Z,21.52
2022-12-23T08:48:32.207Z,16.65
2022-12-23T08:51:07.900Z,13.27
2022-12-23T08:53:37.643Z,20.88
2022-12-23T08:56:17.819Z,13.98
2022-12-23T08:58:51.485Z,21.05
2022-12-23T09:01:23.356Z,21.98
2022-12-23T09:03:52.867Z,18.25
2022-12-23T09:06:29.070Z,16.83
2022-12-23T09:09:00.152Z,17.67
2022-12-23T09:11:30.270Z,21.35
2022-12-23T09:14:00.632Z,16.95
2022-12-23T09:16:30.203Z,15.05
2022-12-23T09:19:00.782Z,17.58
2022-12-23T09:21:30.597Z,24.00
2022-12-23T09:23:59.363Z,22.83
2022-12-23T09:26:29.929Z,17.67
2022-12-23T09:28:59.271Z,20.08
2022-12-23T09:31:36.187Z,18.65
2022-12-23T09:34:06.753Z,23.38
2022-12-23T09:36:37.158Z,18.10
2022-12-23T09:39:11.051Z,31.63
2022-12-23T09:41:46.796Z,32.85
2022-12-23T09:47:32.104Z,33.90
2022-12-23T09:50:03.324Z,17.52
2022-12-23T09:53:04.790Z,19.58
2022-12-23T09:55:34.496Z,21.90
2022-12-23T09:58:07.478Z,20.75
2022-12-23T10:00:45.421Z,57.42
2022-12-23T10:03:26.831Z,29.13
2022-12-23T10:06:16.774Z,20.05
2022-12-23T10:08:47.893Z,19.23
2022-12-23T10:11:29.301Z,22.20
2022-12-23T10:14:16.843Z,24.48
2022-12-23T10:16:47.604Z,24.08
2022-12-23T10:19:32.538Z,25.35
2022-12-23T10:22:01.868Z,33.92
2022-12-23T10:24:36.930Z,20.20
2022-12-23T10:27:39.505Z,20.05
2022-12-23T10:30:34.166Z,19.65
2022-12-23T10:33:09.740Z,22.77
2022-12-23T10:35:58.318Z,21.33
2022-12-23T10:41:22.171Z,19.23
2022-12-23T10:44:18.051Z,19.40
2022-12-23T10:46:51.283Z,23.70
2022-12-23T10:49:42.072Z,22.08
2022-12-23T10:52:19.175Z,24.08
2022-12-23T10:54:49.818Z,36.53
2022-12-23T10:57:19.767Z,24.05
2022-12-23T10:59:48.930Z,28.77
2022-12-23T11:02:22.981Z,26.17
2022-12-23T11:04:52.552Z,22.98
2022-12-23T11:10:17.504Z,132.25
2022-12-23T11:12:48.665Z,55.70
2022-12-23T11:15:28.780Z,27.75
2022-12-23T11:18:07.775Z,31.77
2022-12-23T11:21:02.378Z,29.55
2022-12-23T11:23:33.617Z,24.55
2022-12-23T11:26:04.215Z,28.25
2022-12-23T11:28:34.728Z,29.98
2022-12-23T11:31:08.959Z,25.25
2022-12-23T11:34:01.844Z,25.55
2022-12-23T11:36:31.651Z,20.85
2022-12-23T11:39:12.911Z,22.17
2022-12-23T11:41:50.129Z,20.42
2022-12-23T11:44:38.689Z,29.83
2022-12-23T11:47:20.170Z,31.67
2022-12-23T11:49:51.539Z,31.00
2022-12-23T11:52:21.623Z,29.70
2022-12-23T11:55:01.701Z,53.28
2022-12-23T11:57:34.681Z,36.17
2022-12-23T12:00:06.181Z,36.85
2022-12-23T12:02:35.232Z,23.45
2022-12-23T12:05:18.834Z,24.73
2022-12-23T12:07:48.850Z,24.70
2022-12-23T12:10:27.201Z,20.95
2022-12-23T12:12:57.384Z,18.83
2022-12-23T12:15:33.192Z,18.63
2022-12-23T12:18:07.324Z,20.48
2022-12-23T12:21:09.702Z,18.98
2022-12-23T12:23:42.053Z,22.00
2022-12-23T12:26:27.981Z,17.85
2022-12-23T12:29:15.490Z,17.23
2022-12-23T12:31:46.518Z,17.30
2022-12-23T12:34:24.890Z,15.67
2022-12-23T12:37:00.910Z,14.73
2022-12-23T12:39:36.589Z,15.15
2022-12-23T12:42:16.859Z,15.65
2022-12-23T12:45:04.871Z,19.00
2022-12-23T12:48:05.982Z,16.33
2022-12-23T12:50:40.444Z,16.23
2022-12-23T12:53:20.467Z,15.23
2022-12-23T12:56:22.284Z,16.05
2022-12-23T12:58:51.357Z,18.30
2022-12-23T13:01:26.555Z,50.65
2022-12-23T13:04:06.446Z,25.75
2022-12-23T13:07:02.530Z,16.10
2022-12-23T13:10:00.754Z,14.63
2022-12-23T13:12:57.059Z,15.43
2022-12-23T13:15:25.764Z,15.65
2022-12-23T13:18:19.727Z,24.83
2022-12-23T13:20:59.875Z,16.00
2022-12-23T13:23:44.633Z,15.15
2022-12-23T13:26:32.464Z,17.50
2022-12-23T13:29:25.440Z,17.40
2022-12-23T13:32:04.619Z,14.00
2022-12-23T13:37:48.821Z,18.38
2022-12-23T13:40:24.872Z,19.33
2022-12-23T13:42:56.361Z,17.83
2022-12-23T13:45:29.583Z,17.23
2022-12-23T13:48:09.985Z,21.13
2022-12-23T13:53:47.895Z,17.65
2022-12-23T13:56:24.704Z,14.65
2022-12-23T13:59:00.137Z,15.82
2022-12-23T14:01:42.053Z,19.13
2022-12-23T14:04:31.484Z,15.80
2022-12-23T14:07:07.884Z,36.92
2022-12-23T14:09:38.931Z,48.55
2022-12-23T14:12:40.944Z,63.60
2022-12-23T14:15:21.285Z,73.20
2022-12-23T14:18:04.857Z,24.20
2022-12-23T14:21:02.586Z,26.35
2022-12-23T14:24:00.877Z,37.10
2022-12-23T14:26:51.278Z,51.58
2022-12-23T14:32:05.433Z,54.53
2022-12-23T14:34:34.592Z,82.45
2022-12-23T14:37:17.189Z,68.60
2022-12-23T14:39:50.866Z,34.13
2022-12-23T14:42:36.785Z,59.33
2022-12-23T14:45:28.446Z,22.27
2022-12-23T14:47:57.471Z,66.22
2022-12-23T14:50:36.674Z,32.28
2022-12-23T14:53:25.578Z,35.20
2022-12-23T14:56:11.540Z,20.96
2022-12-23T14:58:40.289Z,23.45
2022-12-23T15:01:15.734Z,29.77
2022-12-23T15:04:01.375Z,22.42
2022-12-23T15:06:38.728Z,21.50
2022-12-23T15:09:24.241Z,19.10
2022-12-23T15:11:55.298Z,21.67
2022-12-23T15:14:36.377Z,21.30
2022-12-23T15:20:28.741Z,21.45
2022-12-23T15:23:01.450Z,21.67
2022-12-23T15:25:35.356Z,42.95
2022-12-23T15:28:04.484Z,35.17
2022-12-23T15:30:37.140Z,21.60
2022-12-23T15:33:21.852Z,27.88
2022-12-23T15:35:57.957Z,22.88
2022-12-23T15:38:28.569Z,23.92
2022-12-23T15:41:14.771Z,64.80
2022-12-23T15:43:44.064Z,30.35
2022-12-23T15:46:26.952Z,21.17
2022-12-23T15:48:58.640Z,25.55
2022-12-23T15:52:06.412Z,36.15
2022-12-23T15:54:40.707Z,17.90
2022-12-23T15:57:14.445Z,19.03
2022-12-23T15:59:54.181Z,17.90
2022-12-23T16:02:59.734Z,18.65
2022-12-23T16:05:29.202Z,16.77
2022-12-23T16:08:24.624Z,14.70
2022-12-23T16:11:01.554Z,13.95
2022-12-23T16:13:46.759Z,14.57
2022-12-23T16:16:31.749Z,12.55
2022-12-23T16:19:01.302Z,24.20
2022-12-23T16:21:33.168Z,28.55
2022-12-23T16:24:03.605Z,18.23
2022-12-23T16:26:39.854Z,15.90
2022-12-23T16:29:18.349Z,12.60
2022-12-23T16:31:52.277Z,12.10
2022-12-23T16:34:26.711Z,13.13
2022-12-23T16:36:56.517Z,15.23
2022-12-23T16:39:25.569Z,13.93
2022-12-23T16:41:55.009Z,13.13
2022-12-23T16:44:27.260Z,13.10
2022-12-23T16:46:56.507Z,16.48
2022-12-23T16:49:36.356Z,13.82
2022-12-23T16:52:07.582Z,11.18
2022-12-23T16:54:36.781Z,9.80
2022-12-23T16:57:05.772Z,11.13
2022-12-23T16:59:41.518Z,12.25
2022-12-23T17:02:22.946Z,13.25
2022-12-23T17:04:52.564Z,13.25
2022-12-23T17:07:26.980Z,12.09
2022-12-23T17:09:56.260Z,12.32
2022-12-23T17:12:25.111Z,13.50
2022-12-23T17:14:59.135Z,16.33
2022-12-23T17:17:30.530Z,11.07
2022-12-23T17:19:59.918Z,10.18
2022-12-23T17:22:29.250Z,14.15
2022-12-23T17:25:13.091Z,13.93
2022-12-23T17:27:42.199Z,12.13
2022-12-23T17:30:15.244Z,11.57
2022-12-23T17:32:51.508Z,13.50
2022-12-23T17:35:22.855Z,12.88
2022-12-23T17:37:53.874Z,14.90
2022-12-23T17:40:23.091Z,11.40
2022-12-23T17:42:51.975Z,12.32
2022-12-23T17:45:32.194Z,14.05
2022-12-23T17:48:01.221Z,10.50
2022-12-23T17:50:30.292Z,13.60
2022-12-23T17:53:13.748Z,12.63
2022-12-23T17:55:47.358Z,12.07
2022-12-23T17:58:24.417Z,15.88
2022-12-23T18:01:03.558Z,12.50
2022-12-23T18:03:32.774Z,11.52
2022-12-23T18:06:02.398Z,10.55
2022-12-23T18:08:31.315Z,12.25
2022-12-23T18:11:00.105Z,13.25
2022-12-23T18:13:29.458Z,11.48
2022-12-23T18:16:03.590Z,14.68
2022-12-23T18:18:41.948Z,10.13
2022-12-23T18:21:18.092Z,12.00
2022-12-23T18:23:47.656Z,13.65
2022-12-23T18:26:23.377Z,12.30
2022-12-23T18:28:54.660Z,9.13
2022-12-23T18:31:24.855Z,12.13
2022-12-23T18:33:55.072Z,9.82
2022-12-23T18:36:27.868Z,10.80
2022-12-23T18:38:57.668Z,13.13
2022-12-23T18:41:27.640Z,13.27
2022-12-23T18:43:56.469Z,12.40
2022-12-23T18:46:25.396Z,12.93
2022-12-23T18:49:03.762Z,12.00
2022-12-23T18:51:33.149Z,12.55
2022-12-23T18:54:02.101Z,15.00
2022-12-23T18:56:31.341Z,14.27
2022-12-23T18:59:00.665Z,13.90
2022-12-23T19:01:29.735Z,12.75
2022-12-23T19:03:58.760Z,15.98
2022-12-23T19:06:38.420Z,16.88
2022-12-23T19:09:07.829Z,13.15
2022-12-23T19:11:36.344Z,11.60
2022-12-23T19:14:06.334Z,17.55
2022-12-23T19:16:36.370Z,14.65
2022-12-23T19:19:05.129Z,12.07
2022-12-23T19:21:34.128Z,14.77
2022-12-23T19:24:03.556Z,13.10
2022-12-23T19:26:32.449Z,11.75
2022-12-23T19:29:01.415Z,11.23
2022-12-23T19:31:31.221Z,13.32
2022-12-23T19:34:08.264Z,11.13
2022-12-23T19:36:41.617Z,13.13
2022-12-23T19:39:17.159Z,17.48
2022-12-23T19:41:48.411Z,14.18
2022-12-23T19:44:17.879Z,16.60
2022-12-23T19:46:46.474Z,16.88
2022-12-23T19:49:19.937Z,19.48
2022-12-23T19:51:49.591Z,14.15
2022-12-23T19:54:19.145Z,16.25
2022-12-23T19:56:50.321Z,14.10
2022-12-23T19:59:29.638Z,12.98
2022-12-23T20:01:58.463Z,15.60
2022-12-23T20:04:38.301Z,15.75
2022-12-23T20:07:12.437Z,16.08
2022-12-23T20:09:41.562Z,15.00
2022-12-23T20:12:10.608Z,17.23
2022-12-23T20:14:39.337Z,15.77
2022-12-23T20:17:13.456Z,16.05
2022-12-23T20:19:47.518Z,17.60
2022-12-23T20:22:21.204Z,16.75
2022-12-23T20:25:01.027Z,27.65
2022-12-23T20:27:32.897Z,13.82
2022-12-23T20:30:01.797Z,17.90
2022-12-23T20:32:37.541Z,15.30
2022-12-23T20:35:09.494Z,17.85
2022-12-23T20:37:38.561Z,14.90
2022-12-23T20:40:07.839Z,13.63
2022-12-23T20:42:36.935Z,14.98
2022-12-23T20:45:10.973Z,14.02
2022-12-23T20:47:40.484Z,14.85
2022-12-23T20:50:15.125Z,15.43
2022-12-23T20:52:43.840Z,16.10
2022-12-23T20:55:23.593Z,14.63
2022-12-23T20:57:52.499Z,17.38
2022-12-23T21:00:31.679Z,17.90
2022-12-23T21:03:05.284Z,14.30
2022-12-23T21:05:42.384Z,14.52
2022-12-23T21:08:17.290Z,19.15
2022-12-23T21:10:52.347Z,15.10
2022-12-23T21:13:26.970Z,14.02
2022-12-23T21:16:03.805Z,17.65
2022-12-23T21:18:33.087Z,16.90
2022-12-23T21:21:03.334Z,18.67
2022-12-23T21:23:38.802Z,17.15
2022-12-23T21:26:07.951Z,20.30
2022-12-23T21:28:43.960Z,17.67
2022-12-23T21:31:24.108Z,21.45
2022-12-23T21:34:01.050Z,18.13
2022-12-23T21:36:32.096Z,15.85
2022-12-23T21:39:02.732Z,17.73
2022-12-23T21:41:35.012Z,17.02
2022-12-23T21:44:15.174Z,19.35
2022-12-23T21:46:44.470Z,18.63
2022-12-23T21:49:17.923Z,16.05
2022-12-23T21:51:47.150Z,16.60
2022-12-23T21:54:16.015Z,22.17
2022-12-23T21:56:46.836Z,17.88
2022-12-23T21:59:16.505Z,18.90
2022-12-23T22:01:51.394Z,16.55
2022-12-23T22:04:20.694Z,21.15
2022-12-23T22:06:50.207Z,16.30
2022-12-23T22:09:20.052Z,21.23
2022-12-23T22:11:48.910Z,17.50
2022-12-23T22:14:18.935Z,17.60
2022-12-23T22:16:48.556Z,18.27
2022-12-23T22:19:19.018Z,21.02
2022-12-23T22:21:48.149Z,19.88
2022-12-23T22:24:17.028Z,20.25
2022-12-23T22:26:51.578Z,17.63
2022-12-23T22:29:20.512Z,18.38
2022-12-23T22:31:50.555Z,18.00
2022-12-23T22:34:21.722Z,18.60
2022-12-23T22:36:50.474Z,18.67
2022-12-23T22:39:21.661Z,20.13
2022-12-23T22:41:51.350Z,20.02
2022-12-23T22:44:20.780Z,18.05
2022-12-23T22:46:49.606Z,19.75
2022-12-23T22:49:18.878Z,16.33
2022-12-23T22:51:48.647Z,20.27
2022-12-23T22:54:17.331Z,21.40
2022-12-23T22:56:48.900Z,17.40
2022-12-23T22:59:24.571Z,19.25
2022-12-23T23:01:53.963Z,20.10
2022-12-23T23:04:23.198Z,18.55
2022-12-23T23:07:02.257Z,18.70
2022-12-23T23:09:31.188Z,20.85
2022-12-23T23:12:05.165Z,19.00
2022-12-23T23:14:52.788Z,18.52
2022-12-23T23:17:27.925Z,17.35
2022-12-23T23:19:57.167Z,17.58
2022-12-23T23:22:25.957Z,22.25
2022-12-23T23:24:55.176Z,22.30
2022-12-23T23:27:29.048Z,19.40
2022-12-23T23:29:57.751Z,18.25
2022-12-23T23:32:37.622Z,19.30
2022-12-23T23:35:11.256Z,22.40
2022-12-23T23:37:51.249Z,20.63
2022-12-23T23:40:20.689Z,16.30
2022-12-23T23:42:49.732Z,20.37
2022-12-23T23:45:23.370Z,23.02
2022-12-23T23:47:52.351Z,24.17
2022-12-23T23:50:26.615Z,20.92
2022-12-23T23:53:06.667Z,18.05
2022-12-23T23:55:35.564Z,20.30
2022-12-23T23:58:05.312Z,25.40
